Terminal Aerodrome Forecast
Issued by NWS

Home | Current Version | Previous Version | Text Only | Print | Product List | Glossary On
Versions: 1 2 3 4 5 6 7 8 9 10 11 12 13 14 15 16 17 18 19 20 21 22 23 24 25 26
248
FTUS43 KSGF 282340
TAFJLN
TAF
KJLN 282340Z 2900/2924 08009KT P6SM SCT150
     FM290400 09012G20KT P6SM VCSH BKN035 WS020/12045KT
     FM290900 11013G21KT 5SM -SHRA VCTS BKN015 OVC035CB
      WS020/12045KT
     FM291400 12012G21KT 6SM -SHRA VCTS OVC025CB
     FM292100 14014G27KT 6SM -TSRA BKN035CB=

USA.gov is the U.S. government's official web portal to all federal, state and local government web resources and services.